This is the latest recevied weather packets stored in our database for station/object E25DQY-1. If no packets are shown the sender has not sent any weather packets the latest 10 day(s).
| Time | Temp. | Humidity | Pressure | Rain* | Wind** | Luminosity | Snow |
|---|---|---|---|---|---|---|---|
| 1788086004 | 36.67° C | 52% | 1003 hPa | - | - | 0 W/m² | - |
| 1788084182 | 37.78° C | 49% | 1003 hPa | - | - | 0 W/m² | - |
| 1788082360 | 38.33° C | 48% | 1002 hPa | - | - | 0 W/m² | - |
| 1788080538 | 38.89° C | 47% | 1002 hPa | - | - | 0 W/m² | - |
| 1788078716 | 38.89° C | 46% | 1003 hPa | - | - | 0 W/m² | - |
| 1788076894 | 39.44° C | 44% | 1003 hPa | - | - | 0 W/m² | - |
| 1788075072 | 40° C | 44% | 1003 hPa | - | - | 0 W/m² | - |
| 1788073250 | 40° C | 44% | 1004 hPa | - | - | 0 W/m² | - |
| 1788071428 | 40° C | 44% | 1004 hPa | - | - | 0 W/m² | - |
| 1788069606 | 40° C | 46% | 1004 hPa | - | - | 0 W/m² | - |
| 1788067784 | 39.44° C | 47% | 1005 hPa | - | - | 0 W/m² | - |
| 1788065961 | 39.44° C | 48% | 1005 hPa | - | - | 0 W/m² | - |
| 1788064139 | 38.33° C | 50% | 1005 hPa | - | - | 0 W/m² | - |
| 1788062317 | 38.33° C | 50% | 1006 hPa | - | - | 0 W/m² | - |
| 1788060496 | 37.78° C | 51% | 1006 hPa | - | - | 0 W/m² | - |
| 1788058674 | 38.33° C | 52% | 1006 hPa | - | - | 0 W/m² | - |
| 1788056851 | 37.22° C | 58% | 1006 hPa | - | - | 0 W/m² | - |
| 1788055029 | 35.56° C | 61% | 1006 hPa | - | - | 0 W/m² | - |
| 1788053206 | 33.89° C | 64% | 1005 hPa | - | - | 0 W/m² | - |
| 1788051384 | 32.78° C | 66% | 1005 hPa | - | - | 0 W/m² | - |
| 1788049562 | 31.67° C | 69% | 1005 hPa | - | - | 0 W/m² | - |
| 1788047738 | 30.56° C | 69% | 1004 hPa | - | - | 0 W/m² | - |
| 1788045916 | 30.56° C | 69% | 1004 hPa | - | - | 0 W/m² | - |
| 1788044095 | 30.56° C | 69% | 1004 hPa | - | - | 0 W/m² | - |
| 1788042272 | 30.56° C | 68% | 1004 hPa | - | - | 0 W/m² | - |
* Rain since midnight (hover to see other rain measurements)
** Current wind speed in m/s (hover to see current wind gust speed)